Time;durP1;ratioP1;P1;durP2;ratioP2;P2;SDS_P1;SDS_P2;PMS_P1;PMS_P2;Temp;Humidity;BMP_temperature;BMP_pressure;BME280_temperature;BME280_humidity;BME280_pressure;Samples;Min_cycle;Max_cycle;Signal;HPM_P1;HPM_P2
2022/05/18 00:01:39;;;;;;;16.95;8.90;;;;;;;;;;5078286;28;20144;-77
2022/05/18 00:04:05;;;;;;;14.45;8.07;;;;;;;;;;5064019;28;20537;-76
2022/05/18 00:06:32;;;;;;;12.95;8.55;;;;;;;;;;5064784;28;20057;-76
2022/05/18 00:08:58;;;;;;;17.70;8.75;;;;;;;;;;5065765;28;20517;-77
2022/05/18 00:11:25;;;;;;;17.77;8.85;;;;;;;;;;5064174;28;20141;-76
2022/05/18 00:13:52;;;;;;;13.80;8.77;;;;;;;;;;5063293;28;20057;-76
2022/05/18 00:16:19;;;;;;;12.57;8.07;;;;;;;;;;5065144;28;20080;-77
2022/05/18 00:18:46;;;;;;;15.65;9.38;;;;;;;;;;5064158;28;20053;-76
2022/05/18 00:21:13;;;;;;;13.85;9.13;;;;;;;;;;5060887;28;20053;-76
2022/05/18 00:23:39;;;;;;;15.18;8.95;;;;;;;;;;5053343;28;20053;-77
2022/05/18 00:26:05;;;;;;;13.85;8.57;;;;;;;;;;5064066;28;20053;-76
2022/05/18 00:28:32;;;;;;;16.40;9.38;;;;;;;;;;5064902;28;20583;-77
2022/05/18 00:30:59;;;;;;;13.80;9.32;;;;;;;;;;5064664;28;20132;-77
2022/05/18 00:33:26;;;;;;;18.88;9.70;;;;;;;;;;5073336;28;20170;-77
2022/05/18 00:35:52;;;;;;;15.43;9.98;;;;;;;;;;5065448;28;20128;-77
2022/05/18 00:38:18;;;;;;;17.00;9.40;;;;;;;;;;5063942;28;20065;-76
2022/05/18 00:40:46;;;;;;;16.52;9.45;;;;;;;;;;5054246;28;20053;-76
2022/05/18 00:43:36;;;;;;;14.90;9.15;;;;;;;;;;5062986;28;20444;-76
2022/05/18 00:46:04;;;;;;;14.63;9.70;;;;;;;;;;5060041;28;20136;-77
2022/05/18 00:48:31;;;;;;;18.27;10.27;;;;;;;;;;5065298;28;20127;-77
2022/05/18 00:50:59;;;;;;;18.08;10.00;;;;;;;;;;5065498;28;20055;-76
2022/05/18 00:53:29;;;;;;;15.32;10.45;;;;;;;;;;5063476;28;20140;-76
2022/05/18 00:55:57;;;;;;;17.00;10.35;;;;;;;;;;5063929;28;20080;-76
2022/05/18 00:58:36;;;;;;;18.15;10.30;;;;;;;;;;5063670;28;20048;-76
2022/05/18 01:01:02;;;;;;;17.50;10.85;;;;;;;;;;5063130;28;20056;-77
2022/05/18 01:03:32;;;;;;;15.98;10.13;;;;;;;;;;5062587;28;20083;-77
2022/05/18 01:06:02;;;;;;;18.13;10.25;;;;;;;;;;5062864;28;20128;-77
2022/05/18 01:08:34;;;;;;;17.55;10.65;;;;;;;;;;5065459;28;20053;-77
2022/05/18 01:11:00;;;;;;;15.98;10.23;;;;;;;;;;5064646;28;20128;-77
2022/05/18 01:13:27;;;;;;;19.15;10.60;;;;;;;;;;5062843;28;20055;-78
2022/05/18 01:15:53;;;;;;;15.60;10.40;;;;;;;;;;5063571;28;20049;-77
2022/05/18 01:18:19;;;;;;;26.42;11.18;;;;;;;;;;5063831;28;20060;-77
2022/05/18 01:20:46;;;;;;;17.33;9.93;;;;;;;;;;5064196;28;20169;-77
2022/05/18 01:23:28;;;;;;;18.02;10.68;;;;;;;;;;5062970;28;20125;-77
2022/05/18 01:25:57;;;;;;;19.02;11.07;;;;;;;;;;5064686;28;20140;-77
2022/05/18 01:28:24;;;;;;;19.17;11.25;;;;;;;;;;5061464;28;20083;-77
2022/05/18 01:30:51;;;;;;;18.00;11.52;;;;;;;;;;5059793;28;20140;-77
2022/05/18 01:33:18;;;;;;;18.15;10.60;;;;;;;;;;5063207;28;20057;-77
2022/05/18 01:35:46;;;;;;;21.25;11.27;;;;;;;;;;5062691;28;20053;-77
2022/05/18 01:38:13;;;;;;;18.35;10.75;;;;;;;;;;5064382;28;20059;-77
2022/05/18 01:40:39;;;;;;;18.45;11.20;;;;;;;;;;5060239;28;20529;-77
2022/05/18 01:43:11;;;;;;;19.17;11.23;;;;;;;;;;5063439;28;20053;-76
2022/05/18 01:45:38;;;;;;;17.05;11.40;;;;;;;;;;5062421;28;20053;-77
2022/05/18 01:48:09;;;;;;;18.27;11.65;;;;;;;;;;5063781;28;20879;-77
2022/05/18 01:50:35;;;;;;;;;;;;;;;;;;5064584;28;20514;-77
2022/05/18 01:53:01;;;;;;;17.90;11.05;;;;;;;;;;5060045;28;41844;-77
2022/05/18 01:55:27;;;;;;;18.60;11.55;;;;;;;;;;5063160;28;20516;-76
2022/05/18 01:57:54;;;;;;;16.75;10.90;;;;;;;;;;5080737;28;20041;-77
2022/05/18 02:00:20;;;;;;;19.02;11.02;;;;;;;;;;5083032;28;20049;-77
2022/05/18 02:02:47;;;;;;;15.98;10.52;;;;;;;;;;5066436;28;20049;-77
2022/05/18 02:05:13;;;;;;;17.80;10.60;;;;;;;;;;5054716;28;20140;-77
2022/05/18 02:07:39;;;;;;;17.27;10.73;;;;;;;;;;5053204;28;20520;-77
2022/05/18 02:10:06;;;;;;;17.02;10.05;;;;;;;;;;5062523;28;20963;-77
2022/05/18 02:12:35;;;;;;;15.60;9.98;;;;;;;;;;5060872;28;20188;-77
2022/05/18 02:15:03;;;;;;;13.65;9.93;;;;;;;;;;5061326;28;20053;-77
2022/05/18 02:17:30;;;;;;;16.00;9.10;;;;;;;;;;5063658;28;20543;-76
2022/05/18 02:19:57;;;;;;;14.35;9.18;;;;;;;;;;5063274;28;20053;-76
2022/05/18 02:22:24;;;;;;;18.83;10.05;;;;;;;;;;5063337;28;20250;-77
2022/05/18 02:24:51;;;;;;;16.02;9.73;;;;;;;;;;5063233;28;20135;-77
2022/05/18 02:27:17;;;;;;;16.50;8.75;;;;;;;;;;5060965;28;20061;-77
2022/05/18 02:29:44;;;;;;;13.10;8.35;;;;;;;;;;5063859;28;20065;-77
2022/05/18 02:32:10;;;;;;;15.52;8.88;;;;;;;;;;5061787;28;20054;-77
2022/05/18 02:34:36;;;;;;;16.83;9.65;;;;;;;;;;5064301;28;20242;-77
2022/05/18 02:37:03;;;;;;;15.38;9.13;;;;;;;;;;5062382;28;20048;-76
2022/05/18 02:39:29;;;;;;;16.60;10.20;;;;;;;;;;5061253;28;20143;-77
2022/05/18 02:41:56;;;;;;;20.35;10.55;;;;;;;;;;5062011;28;20053;-76
2022/05/18 02:44:22;;;;;;;18.30;11.32;;;;;;;;;;5062763;28;20171;-76
2022/05/18 02:46:49;;;;;;;20.63;11.75;;;;;;;;;;5062386;28;20057;-77
2022/05/18 02:49:15;;;;;;;17.52;10.82;;;;;;;;;;5060300;28;21922;-78
2022/05/18 02:51:42;;;;;;;18.27;11.48;;;;;;;;;;5062411;28;20057;-77
2022/05/18 02:56:59;;;;;;;22.33;12.70;;;;;;;;;;5051335;28;20046;-77
2022/05/18 02:59:26;;;;;;;19.80;11.60;;;;;;;;;;5062396;28;20575;-77
2022/05/18 03:01:53;;;;;;;18.00;10.95;;;;;;;;;;5062201;28;20152;-77
2022/05/18 03:04:19;;;;;;;15.23;9.93;;;;;;;;;;5063191;28;20111;-77
2022/05/18 03:06:45;;;;;;;14.90;10.02;;;;;;;;;;5061923;28;20071;-77
2022/05/18 03:09:12;;;;;;;15.52;10.23;;;;;;;;;;5062321;28;20057;-77
2022/05/18 03:11:38;;;;;;;17.27;10.10;;;;;;;;;;5055512;28;20567;-77
2022/05/18 03:14:05;;;;;;;16.60;10.65;;;;;;;;;;5060352;28;20156;-77
2022/05/18 03:16:31;;;;;;;16.67;10.50;;;;;;;;;;5076386;28;20057;-78
2022/05/18 03:18:58;;;;;;;19.15;12.13;;;;;;;;;;5062109;28;20057;-77
2022/05/18 03:24:10;;;;;;;19.35;11.68;;;;;;;;;;5063745;28;20528;-77
2022/05/18 03:26:37;;;;;;;17.77;11.63;;;;;;;;;;5064463;28;20049;-77
2022/05/18 03:29:03;;;;;;;16.33;11.10;;;;;;;;;;5066444;28;20045;-77
2022/05/18 03:31:30;;;;;;;15.82;10.35;;;;;;;;;;5053707;28;20143;-77
2022/05/18 03:33:58;;;;;;;15.13;9.27;;;;;;;;;;5086980;28;20711;-77
2022/05/18 03:36:24;;;;;;;11.68;8.00;;;;;;;;;;5066462;28;20132;-77
2022/05/18 03:38:52;;;;;;;12.20;7.97;;;;;;;;;;5065063;28;20469;-77
2022/05/18 03:41:18;;;;;;;12.25;7.60;;;;;;;;;;5064578;28;20075;-77
2022/05/18 03:43:45;;;;;;;13.27;7.72;;;;;;;;;;5059100;28;20143;-76
2022/05/18 03:46:12;;;;;;;14.73;7.75;;;;;;;;;;5067694;28;20367;-78
2022/05/18 03:48:38;;;;;;;15.45;8.63;;;;;;;;;;5047443;28;20566;-78
2022/05/18 03:51:06;;;;;;;15.65;8.82;;;;;;;;;;5062760;28;20515;-78
2022/05/18 03:53:32;;;;;;;11.82;7.88;;;;;;;;;;5065245;28;20136;-78
2022/05/18 03:55:59;;;;;;;12.07;8.30;;;;;;;;;;5064641;28;20169;-78
2022/05/18 03:58:26;;;;;;;13.40;8.60;;;;;;;;;;5064611;28;20053;-77
2022/05/18 04:00:53;;;;;;;15.38;9.65;;;;;;;;;;5065818;28;20053;-78
2022/05/18 04:03:20;;;;;;;12.93;9.32;;;;;;;;;;5063563;28;20147;-78
2022/05/18 04:05:50;;;;;;;13.48;9.57;;;;;;;;;;5054451;28;20057;-78
2022/05/18 04:08:17;;;;;;;16.15;9.10;;;;;;;;;;5081870;28;20063;-78
2022/05/18 04:10:43;;;;;;;13.57;9.18;;;;;;;;;;5065537;28;20489;-78
2022/05/18 04:13:17;;;;;;;12.40;8.93;;;;;;;;;;5063307;28;20087;-77
2022/05/18 04:15:44;;;;;;;16.90;10.50;;;;;;;;;;5064467;28;20059;-78
2022/05/18 04:18:10;;;;;;;17.90;10.25;;;;;;;;;;5064592;28;20059;-78
2022/05/18 04:20:36;;;;;;;18.23;10.57;;;;;;;;;;5064892;28;20436;-78
2022/05/18 04:23:03;;;;;;;19.38;10.30;;;;;;;;;;5060569;28;20140;-78
2022/05/18 04:25:29;;;;;;;14.00;10.02;;;;;;;;;;5064333;28;20541;-78
2022/05/18 04:27:56;;;;;;;17.05;10.32;;;;;;;;;;5064697;28;20053;-77
2022/05/18 04:30:24;;;;;;;19.58;10.63;;;;;;;;;;5064774;28;20592;-78
2022/05/18 04:32:51;;;;;;;20.27;11.57;;;;;;;;;;5065554;28;20053;-78
2022/05/18 04:35:19;;;;;;;19.63;11.90;;;;;;;;;;5061584;28;20060;-78
2022/05/18 04:37:47;;;;;;;19.13;11.57;;;;;;;;;;5060524;28;20989;-78
2022/05/18 04:40:13;;;;;;;19.73;12.27;;;;;;;;;;5061730;28;20079;-78
2022/05/18 04:42:40;;;;;;;22.15;11.77;;;;;;;;;;5063712;28;20588;-78
2022/05/18 04:45:08;;;;;;;21.42;12.32;;;;;;;;;;5063755;28;20055;-77
2022/05/18 04:47:34;;;;;;;19.92;12.48;;;;;;;;;;5065394;28;20055;-78
2022/05/18 04:50:01;;;;;;;20.17;12.40;;;;;;;;;;5064838;28;20056;-78
2022/05/18 04:52:28;;;;;;;20.23;13.55;;;;;;;;;;5078965;28;20061;-78
2022/05/18 04:54:55;;;;;;;20.73;13.77;;;;;;;;;;5057000;28;20140;-77
2022/05/18 04:57:22;;;;;;;19.85;13.23;;;;;;;;;;5063746;28;20128;-77
2022/05/18 04:59:49;;;;;;;21.15;14.02;;;;;;;;;;5065338;28;20060;-78
2022/05/18 05:02:16;;;;;;;20.83;13.43;;;;;;;;;;5062850;28;20419;-77
2022/05/18 05:04:43;;;;;;;20.10;12.68;;;;;;;;;;5065062;28;20057;-77
2022/05/18 05:07:09;;;;;;;21.65;14.55;;;;;;;;;;5063677;28;20061;-78
2022/05/18 05:09:37;;;;;;;26.90;14.90;;;;;;;;;;5062678;28;20049;-77
2022/05/18 05:12:04;;;;;;;25.17;14.65;;;;;;;;;;5063131;28;20741;-77
2022/05/18 05:14:32;;;;;;;22.67;13.88;;;;;;;;;;5061258;28;20072;-78
2022/05/18 05:16:59;;;;;;;22.60;14.65;;;;;;;;;;5064153;28;20171;-78
2022/05/18 05:19:26;;;;;;;26.02;14.80;;;;;;;;;;5064135;28;20053;-78
2022/05/18 05:21:52;;;;;;;21.75;14.40;;;;;;;;;;5064843;28;20464;-77
2022/05/18 05:24:19;;;;;;;25.30;15.65;;;;;;;;;;5061037;28;20057;-77
2022/05/18 05:26:45;;;;;;;21.27;13.25;;;;;;;;;;5062175;28;20063;-77
2022/05/18 05:29:12;;;;;;;22.02;14.73;;;;;;;;;;5056784;28;20053;-78
2022/05/18 05:31:38;;;;;;;21.10;15.43;;;;;;;;;;5053847;28;20161;-78
2022/05/18 05:34:05;;;;;;;25.77;15.52;;;;;;;;;;5083430;28;20060;-78
2022/05/18 05:36:32;;;;;;;22.98;14.65;;;;;;;;;;5068210;28;20701;-78
2022/05/18 05:38:58;;;;;;;21.33;13.88;;;;;;;;;;5061695;28;20051;-78
2022/05/18 05:41:26;;;;;;;23.05;13.45;;;;;;;;;;5064514;28;20136;-77
2022/05/18 05:43:53;;;;;;;19.48;13.35;;;;;;;;;;5064084;28;20055;-77
2022/05/18 05:46:20;;;;;;;22.48;12.90;;;;;;;;;;5053300;28;20060;-78
2022/05/18 05:48:46;;;;;;;17.90;13.35;;;;;;;;;;5053938;28;20236;-78
2022/05/18 05:51:14;;;;;;;23.50;13.82;;;;;;;;;;5063189;28;20068;-77
2022/05/18 05:53:41;;;;;;;17.67;13.18;;;;;;;;;;5061628;28;20053;-78
2022/05/18 05:56:07;;;;;;;19.55;13.82;;;;;;;;;;5062810;28;20119;-78
2022/05/18 05:58:36;;;;;;;19.42;13.75;;;;;;;;;;5062689;28;20088;-78
2022/05/18 06:01:04;;;;;;;18.13;12.93;;;;;;;;;;5060366;28;20052;-78
2022/05/18 06:03:31;;;;;;;19.45;13.05;;;;;;;;;;5060903;28;21009;-78
2022/05/18 06:05:57;;;;;;;18.25;12.75;;;;;;;;;;5060146;28;20540;-78
2022/05/18 06:08:24;;;;;;;20.17;12.65;;;;;;;;;;5063957;28;20049;-78
2022/05/18 06:10:50;;;;;;;26.25;13.60;;;;;;;;;;5062720;28;20049;-78
2022/05/18 06:13:16;;;;;;;20.00;13.32;;;;;;;;;;5060423;28;20053;-78
2022/05/18 06:15:43;;;;;;;18.00;12.93;;;;;;;;;;5061516;28;20099;-78
2022/05/18 06:18:10;;;;;;;20.58;13.52;;;;;;;;;;5063225;28;21105;-77
2022/05/18 06:20:45;;;;;;;22.65;13.85;;;;;;;;;;5051518;28;20518;-78
2022/05/18 06:23:11;;;;;;;20.30;13.98;;;;;;;;;;5045924;28;20141;-78
2022/05/18 06:25:37;;;;;;;21.17;13.27;;;;;;;;;;5062682;28;20061;-78
2022/05/18 06:28:05;;;;;;;19.88;14.52;;;;;;;;;;5063845;28;20049;-77
2022/05/18 06:30:31;;;;;;;20.90;14.07;;;;;;;;;;5043626;28;21208;-78
2022/05/18 06:32:57;;;;;;;24.67;15.07;;;;;;;;;;5060854;28;20516;-75
2022/05/18 06:35:24;;;;;;;21.95;13.55;;;;;;;;;;5063002;28;20173;-76
2022/05/18 06:37:50;;;;;;;21.58;14.10;;;;;;;;;;5054814;28;20143;-77
2022/05/18 06:40:18;;;;;;;22.20;14.48;;;;;;;;;;5062994;28;20800;-77
2022/05/18 06:42:45;;;;;;;21.40;14.52;;;;;;;;;;5062212;28;20071;-77
2022/05/18 06:45:12;;;;;;;22.73;15.07;;;;;;;;;;5062409;28;20057;-77
2022/05/18 06:47:39;;;;;;;25.33;14.90;;;;;;;;;;5061896;28;20127;-76
2022/05/18 06:50:08;;;;;;;24.58;15.00;;;;;;;;;;5060476;28;20057;-77
2022/05/18 06:52:34;;;;;;;22.15;15.57;;;;;;;;;;5060155;28;20059;-77
2022/05/18 06:55:00;;;;;;;21.75;15.23;;;;;;;;;;5058912;28;20057;-77
2022/05/18 06:57:28;;;;;;;23.52;14.95;;;;;;;;;;5061695;28;20056;-77
2022/05/18 06:59:55;;;;;;;21.38;14.57;;;;;;;;;;5060698;28;20155;-78
2022/05/18 07:02:22;;;;;;;23.80;15.93;;;;;;;;;;5055657;28;20172;-77
2022/05/18 07:04:49;;;;;;;21.27;15.18;;;;;;;;;;5058330;28;20057;-77
2022/05/18 07:07:17;;;;;;;25.15;15.73;;;;;;;;;;5061083;28;20057;-76
2022/05/18 07:09:43;;;;;;;22.08;15.02;;;;;;;;;;5061798;28;20092;-75
2022/05/18 07:12:09;;;;;;;27.38;16.50;;;;;;;;;;5061114;28;20053;-75
2022/05/18 07:14:36;;;;;;;25.20;16.30;;;;;;;;;;5061984;28;20437;-76
2022/05/18 07:17:02;;;;;;;27.15;15.75;;;;;;;;;;5065653;28;20057;-76
2022/05/18 07:19:30;;;;;;;32.28;17.88;;;;;;;;;;5061135;28;20149;-75
2022/05/18 07:21:56;;;;;;;23.35;16.55;;;;;;;;;;5061633;28;20123;-76
2022/05/18 07:24:23;;;;;;;22.58;15.77;;;;;;;;;;5052239;28;20585;-76
2022/05/18 07:26:49;;;;;;;23.25;15.45;;;;;;;;;;5061612;28;20073;-76
2022/05/18 07:29:15;;;;;;;23.05;15.32;;;;;;;;;;5062360;28;20857;-75
2022/05/18 07:34:27;;;;;;;23.58;15.07;;;;;;;;;;5061911;28;20765;-78
2022/05/18 07:36:54;;;;;;;20.00;15.25;;;;;;;;;;5060755;28;20139;-78
2022/05/18 07:39:20;;;;;;;21.13;14.63;;;;;;;;;;5059800;28;20135;-78
2022/05/18 07:41:46;;;;;;;24.38;15.07;;;;;;;;;;5061841;28;20055;-78
2022/05/18 07:44:13;;;;;;;24.55;15.32;;;;;;;;;;5055301;28;20525;-77
2022/05/18 07:46:39;;;;;;;23.33;15.38;;;;;;;;;;5054630;28;20045;-78
2022/05/18 07:49:06;;;;;;;23.85;14.88;;;;;;;;;;5062470;28;20057;-78
2022/05/18 07:51:32;;;;;;;22.92;15.70;;;;;;;;;;5061082;28;20111;-77
2022/05/18 07:53:59;;;;;;;21.77;15.98;;;;;;;;;;5061968;28;20152;-78
2022/05/18 07:56:26;;;;;;;24.92;15.88;;;;;;;;;;5062340;28;20140;-78
2022/05/18 07:58:54;;;;;;;24.35;16.00;;;;;;;;;;5062794;28;20068;-77
2022/05/18 08:01:20;;;;;;;22.50;16.02;;;;;;;;;;5060225;28;20132;-77
2022/05/18 08:03:48;;;;;;;22.42;16.10;;;;;;;;;;5060780;28;20053;-78
2022/05/18 08:06:14;;;;;;;19.77;14.65;;;;;;;;;;5059865;28;21709;-77
2022/05/18 08:08:41;;;;;;;22.63;14.55;;;;;;;;;;5073773;28;20183;-77
2022/05/18 08:16:37;;;;;;;23.63;15.05;;;;;;;;;;5063188;28;20951;-78
2022/05/18 08:19:06;;;;;;;23.20;15.35;;;;;;;;;;5064950;28;20057;-77
2022/05/18 08:21:32;;;;;;;23.40;14.57;;;;;;;;;;5065386;28;20107;-77
2022/05/18 08:23:58;;;;;;;23.25;13.82;;;;;;;;;;5064578;28;20059;-77
2022/05/18 08:26:25;;;;;;;20.25;13.35;;;;;;;;;;5062958;28;20543;-78
2022/05/18 08:28:52;;;;;;;18.55;14.20;;;;;;;;;;5066001;28;20103;-77
2022/05/18 08:31:20;;;;;;;20.77;13.25;;;;;;;;;;5060704;28;20049;-77
2022/05/18 08:33:47;;;;;;;22.00;13.38;;;;;;;;;;5060462;28;20140;-77
2022/05/18 08:36:14;;;;;;;16.27;10.95;;;;;;;;;;5046985;28;20232;-78
2022/05/18 08:38:40;;;;;;;17.40;10.63;;;;;;;;;;5053695;28;20057;-78
2022/05/18 08:41:14;;;;;;;15.60;10.10;;;;;;;;;;5067879;28;20532;-78
2022/05/18 08:43:42;;;;;;;16.60;10.52;;;;;;;;;;5069920;28;20081;-78
2022/05/18 08:46:14;;;;;;;13.05;9.73;;;;;;;;;;5066656;28;20148;-78
2022/05/18 08:48:49;;;;;;;13.15;8.43;;;;;;;;;;5061815;28;20057;-78
2022/05/18 08:51:22;;;;;;;14.80;8.98;;;;;;;;;;5063133;28;20816;-77
2022/05/18 08:54:13;;;;;;;14.35;9.52;;;;;;;;;;5061167;28;20111;-77
2022/05/18 08:56:41;;;;;;;13.70;9.55;;;;;;;;;;5063387;28;20486;-77
2022/05/18 08:59:11;;;;;;;17.15;9.93;;;;;;;;;;5063983;28;20095;-77
2022/05/18 09:01:42;;;;;;;14.20;9.20;;;;;;;;;;5062298;28;20083;-77
2022/05/18 09:04:11;;;;;;;14.10;9.05;;;;;;;;;;5059585;28;20057;-77
2022/05/18 09:06:41;;;;;;;12.65;8.05;;;;;;;;;;5062977;28;20056;-77
2022/05/18 09:11:57;;;;;;;17.55;9.02;;;;;;;;;;5058344;28;20139;-77
2022/05/18 09:14:24;;;;;;;12.25;7.90;;;;;;;;;;5062791;28;20140;-77
2022/05/18 09:17:25;;;;;;;11.77;7.82;;;;;;;;;;5066194;28;20151;-77
2022/05/18 09:19:56;;;;;;;11.90;6.75;;;;;;;;;;5024701;28;20118;-76
2022/05/18 09:22:41;;;;;;;11.75;7.35;;;;;;;;;;5058385;28;20524;-77
2022/05/18 09:25:17;;;;;;;11.27;6.65;;;;;;;;;;5064148;28;20063;-77
2022/05/18 09:28:02;;;;;;;12.55;6.85;;;;;;;;;;5062051;28;20156;-77
2022/05/18 09:30:34;;;;;;;10.45;6.78;;;;;;;;;;5066365;28;20155;-77
2022/05/18 09:33:20;;;;;;;12.65;6.20;;;;;;;;;;5063736;28;20053;-77
2022/05/18 09:35:54;;;;;;;10.80;6.10;;;;;;;;;;5063162;28;20143;-77
2022/05/18 09:38:32;;;;;;;13.05;5.75;;;;;;;;;;5072349;28;20110;-77
2022/05/18 09:40:59;;;;;;;8.75;5.20;;;;;;;;;;5082157;28;20054;-77
2022/05/18 09:43:26;;;;;;;12.48;5.95;;;;;;;;;;5064909;28;20068;-76
2022/05/18 09:45:54;;;;;;;9.02;4.97;;;;;;;;;;5057830;28;20053;-76
2022/05/18 09:48:27;;;;;;;11.43;5.00;;;;;;;;;;5061422;28;20168;-76
2022/05/18 09:50:54;;;;;;;8.35;4.05;;;;;;;;;;5060164;28;21019;-77
2022/05/18 09:53:20;;;;;;;8.27;3.30;;;;;;;;;;5069248;28;20080;-76
2022/05/18 09:55:48;;;;;;;6.68;2.97;;;;;;;;;;5068552;28;20059;-76
2022/05/18 09:58:14;;;;;;;7.15;2.90;;;;;;;;;;5068496;28;20133;-76
2022/05/18 10:00:41;;;;;;;8.20;3.17;;;;;;;;;;5071151;28;20150;-76
2022/05/18 10:08:46;;;;;;;6.28;2.03;;;;;;;;;;5061799;28;46465;-77
2022/05/18 10:11:20;;;;;;;6.85;2.17;;;;;;;;;;5058643;28;20136;-77
2022/05/18 10:14:00;;;;;;;7.38;2.35;;;;;;;;;;5056968;28;20053;-77
2022/05/18 10:16:31;;;;;;;5.45;2.58;;;;;;;;;;5062417;28;20143;-76
2022/05/18 10:18:59;;;;;;;6.97;2.17;;;;;;;;;;5052064;28;20560;-76
2022/05/18 10:21:38;;;;;;;7.60;2.10;;;;;;;;;;5063458;28;20128;-76
2022/05/18 10:24:22;;;;;;;5.47;2.10;;;;;;;;;;5058669;28;20059;-77
2022/05/18 10:27:03;;;;;;;7.30;2.45;;;;;;;;;;5061196;28;20494;-77
2022/05/18 10:29:29;;;;;;;7.05;2.60;;;;;;;;;;5065362;28;20053;-77
2022/05/18 10:32:04;;;;;;;5.10;2.13;;;;;;;;;;5060616;28;20053;-77
2022/05/18 10:34:32;;;;;;;5.72;2.53;;;;;;;;;;5055273;28;20056;-77
2022/05/18 10:37:00;;;;;;;9.73;2.97;;;;;;;;;;5063734;28;20059;-77
2022/05/18 10:39:44;;;;;;;6.00;2.70;;;;;;;;;;5062898;28;20079;-77
2022/05/18 10:42:31;;;;;;;8.18;3.38;;;;;;;;;;5061772;28;20112;-77
2022/05/18 10:45:01;;;;;;;6.00;2.30;;;;;;;;;;5056377;28;20508;-77
2022/05/18 10:47:38;;;;;;;5.82;3.08;;;;;;;;;;5048298;28;20060;-76
2022/05/18 10:50:24;;;;;;;7.30;3.50;;;;;;;;;;5053791;28;20168;-77
2022/05/18 10:52:54;;;;;;;8.63;2.92;;;;;;;;;;5058276;28;20064;-76
2022/05/18 10:55:23;;;;;;;6.00;2.53;;;;;;;;;;5061384;28;20135;-76
2022/05/18 10:58:10;;;;;;;6.57;3.00;;;;;;;;;;5059212;28;20064;-77
2022/05/18 11:00:44;;;;;;;8.45;3.75;;;;;;;;;;5062586;28;20444;-76
2022/05/18 11:03:29;;;;;;;8.00;4.20;;;;;;;;;;5061420;28;20140;-76
2022/05/18 11:06:04;;;;;;;7.07;3.00;;;;;;;;;;5061394;28;20087;-76
2022/05/18 11:08:33;;;;;;;5.57;2.83;;;;;;;;;;5061383;28;20064;-77
2022/05/18 11:11:06;;;;;;;6.82;2.85;;;;;;;;;;5064408;28;20891;-76
2022/05/18 11:13:40;;;;;;;7.65;3.03;;;;;;;;;;5063203;28;20136;-75
2022/05/18 11:16:21;;;;;;;8.23;3.22;;;;;;;;;;5061062;28;20140;-76
2022/05/18 11:19:17;;;;;;;9.77;3.63;;;;;;;;;;5060865;28;20509;-76
2022/05/18 11:21:53;;;;;;;9.88;3.45;;;;;;;;;;5035656;28;20773;-75
2022/05/18 11:24:31;;;;;;;8.38;3.45;;;;;;;;;;5063498;28;20804;-75
2022/05/18 11:27:13;;;;;;;9.35;3.22;;;;;;;;;;5059930;28;20079;-76
2022/05/18 11:29:56;;;;;;;7.65;2.70;;;;;;;;;;5054444;28;20063;-74
2022/05/18 11:32:26;;;;;;;6.03;2.63;;;;;;;;;;5058164;28;20060;-75
2022/05/18 11:34:56;;;;;;;8.02;2.70;;;;;;;;;;5060708;28;20152;-76
2022/05/18 11:37:22;;;;;;;9.07;3.08;;;;;;;;;;5062157;28;20057;-75
2022/05/18 11:40:07;;;;;;;7.43;2.85;;;;;;;;;;5059863;28;20080;-75
2022/05/18 11:42:33;;;;;;;6.30;3.20;;;;;;;;;;5061497;28;20049;-75
2022/05/18 11:45:04;;;;;;;12.00;3.90;;;;;;;;;;5064216;28;20059;-75
2022/05/18 11:47:53;;;;;;;9.52;3.92;;;;;;;;;;5061171;28;20049;-76
2022/05/18 11:50:38;;;;;;;10.15;3.33;;;;;;;;;;5060145;28;20180;-74
2022/05/18 11:53:18;;;;;;;8.68;3.83;;;;;;;;;;5065267;28;20681;-75
2022/05/18 11:55:59;;;;;;;7.13;3.60;;;;;;;;;;5064313;28;20551;-76
2022/05/18 11:58:26;;;;;;;7.90;3.83;;;;;;;;;;5068417;28;20576;-75
2022/05/18 12:00:56;;;;;;;10.63;4.05;;;;;;;;;;5055634;28;20041;-75
2022/05/18 12:03:29;;;;;;;7.88;3.90;;;;;;;;;;5064996;28;20049;-75
2022/05/18 12:06:00;;;;;;;7.43;3.50;;;;;;;;;;5066623;28;20142;-76
2022/05/18 12:08:36;;;;;;;6.90;3.50;;;;;;;;;;5062229;28;20132;-77
2022/05/18 12:11:17;;;;;;;7.22;2.50;;;;;;;;;;5063188;28;20045;-75
2022/05/18 12:13:44;;;;;;;7.90;3.20;;;;;;;;;;5064396;28;20057;-76
2022/05/18 12:16:22;;;;;;;8.27;3.30;;;;;;;;;;5064739;28;20107;-76
2022/05/18 12:19:07;;;;;;;8.48;3.03;;;;;;;;;;5060783;28;20119;-75
2022/05/18 12:21:41;;;;;;;6.70;3.10;;;;;;;;;;5054204;28;20517;-75
2022/05/18 12:24:08;;;;;;;9.65;3.33;;;;;;;;;;5063154;28;20076;-76
2022/05/18 12:26:37;;;;;;;7.18;3.08;;;;;;;;;;5060784;28;20088;-76
2022/05/18 12:29:04;;;;;;;11.73;4.80;;;;;;;;;;5061925;28;20829;-76
2022/05/18 12:31:32;;;;;;;8.60;4.07;;;;;;;;;;5069390;28;20087;-76
2022/05/18 12:33:58;;;;;;;8.23;3.58;;;;;;;;;;5070163;28;20568;-75
2022/05/18 12:36:31;;;;;;;9.95;4.18;;;;;;;;;;5073774;28;20141;-75
2022/05/18 12:39:11;;;;;;;7.35;4.10;;;;;;;;;;5065935;28;20527;-76
2022/05/18 12:41:37;;;;;;;;;;;;;;;;;;5065061;28;20144;-76
2022/05/18 12:44:06;;;;;;;7.25;4.10;;;;;;;;;;5075585;28;46986;-74
2022/05/18 12:46:36;;;;;;;6.88;3.85;;;;;;;;;;5075423;28;20059;-75
2022/05/18 12:49:09;;;;;;;6.78;3.45;;;;;;;;;;5064473;28;20059;-74
2022/05/18 12:51:37;;;;;;;9.05;3.60;;;;;;;;;;5065286;28;20049;-75
2022/05/18 12:54:10;;;;;;;10.25;4.35;;;;;;;;;;5072810;28;20270;-75
2022/05/18 12:56:36;;;;;;;7.72;3.30;;;;;;;;;;5065936;28;20509;-75
2022/05/18 12:59:11;;;;;;;8.35;3.30;;;;;;;;;;5078924;28;20143;-77
2022/05/18 13:01:39;;;;;;;12.10;2.95;;;;;;;;;;5081009;28;20076;-76
2022/05/18 13:04:25;;;;;;;7.97;3.15;;;;;;;;;;5065115;28;20132;-75
2022/05/18 13:06:59;;;;;;;6.15;2.80;;;;;;;;;;5068958;28;20060;-75
2022/05/18 13:09:29;;;;;;;6.32;3.20;;;;;;;;;;5067545;28;20657;-77
2022/05/18 13:12:15;;;;;;;8.20;3.33;;;;;;;;;;5062872;28;20538;-77
2022/05/18 13:14:42;;;;;;;8.05;3.15;;;;;;;;;;5072096;28;20053;-77
2022/05/18 13:17:10;;;;;;;7.57;3.30;;;;;;;;;;5073803;28;20145;-74
2022/05/18 13:19:38;;;;;;;8.75;3.35;;;;;;;;;;5061919;28;20060;-76
2022/05/18 13:22:17;;;;;;;5.47;2.38;;;;;;;;;;5064145;28;20140;-75
2022/05/18 13:24:46;;;;;;;5.43;2.28;;;;;;;;;;5049589;28;20112;-76
2022/05/18 13:27:20;;;;;;;8.98;2.80;;;;;;;;;;5060702;28;20087;-77
2022/05/18 13:29:49;;;;;;;4.60;2.15;;;;;;;;;;5063470;28;20053;-77
2022/05/18 13:32:16;;;;;;;;;;;;;;;;;;5063858;28;20059;-78
2022/05/18 13:35:01;;;;;;;6.18;2.38;;;;;;;;;;5064598;28;41880;-77
2022/05/18 13:37:29;;;;;;;7.03;2.40;;;;;;;;;;5069316;28;20057;-74
2022/05/18 13:40:15;;;;;;;6.63;2.50;;;;;;;;;;5068292;28;20055;-77
2022/05/18 13:42:41;;;;;;;6.60;2.00;;;;;;;;;;5070813;28;20079;-77
2022/05/18 13:45:09;;;;;;;4.32;1.80;;;;;;;;;;5074449;28;20164;-77
2022/05/18 13:47:44;;;;;;;4.53;1.80;;;;;;;;;;5064854;28;20053;-77
2022/05/18 13:50:31;;;;;;;7.75;1.70;;;;;;;;;;5070483;28;20084;-77
2022/05/18 13:53:05;;;;;;;6.18;1.80;;;;;;;;;;5045196;28;20107;-75
2022/05/18 13:55:35;;;;;;;6.15;2.20;;;;;;;;;;5062273;28;20075;-77
2022/05/18 13:58:07;;;;;;;5.97;1.98;;;;;;;;;;5062346;28;20084;-77
2022/05/18 14:00:44;;;;;;;6.20;2.00;;;;;;;;;;5063274;28;20052;-75
2022/05/18 14:03:15;;;;;;;6.45;1.92;;;;;;;;;;5066421;28;20428;-77
2022/05/18 14:05:46;;;;;;;5.97;2.13;;;;;;;;;;5055902;28;20207;-76
2022/05/18 14:08:30;;;;;;;5.95;2.20;;;;;;;;;;5059548;28;20048;-77
2022/05/18 14:11:08;;;;;;;6.75;2.75;;;;;;;;;;5056970;28;20053;-76
2022/05/18 14:13:35;;;;;;;5.30;2.08;;;;;;;;;;5064886;28;20053;-77
2022/05/18 14:16:01;;;;;;;6.57;2.20;;;;;;;;;;5062095;28;20579;-77
2022/05/18 14:18:50;;;;;;;6.18;2.05;;;;;;;;;;5060166;28;20049;-74
2022/05/18 14:21:17;;;;;;;5.45;2.13;;;;;;;;;;5064250;28;20079;-76
2022/05/18 14:23:53;;;;;;;5.88;2.45;;;;;;;;;;5063943;28;20478;-76
2022/05/18 14:26:22;;;;;;;7.25;2.10;;;;;;;;;;5053380;28;21000;-76
2022/05/18 14:28:50;;;;;;;8.82;2.33;;;;;;;;;;5061338;28;20051;-77
2022/05/18 14:31:19;;;;;;;8.27;2.75;;;;;;;;;;5053343;28;20473;-76
2022/05/18 14:33:50;;;;;;;5.28;2.47;;;;;;;;;;5050242;28;20128;-77
2022/05/18 14:36:22;;;;;;;6.30;2.30;;;;;;;;;;5063985;28;20052;-76
2022/05/18 14:38:52;;;;;;;8.07;2.53;;;;;;;;;;5055976;28;20509;-76
2022/05/18 14:41:20;;;;;;;4.40;2.25;;;;;;;;;;5063580;28;20493;-76
2022/05/18 14:43:46;;;;;;;5.43;2.60;;;;;;;;;;5062354;28;20064;-76
2022/05/18 14:46:16;;;;;;;5.97;2.47;;;;;;;;;;5063035;28;20055;-76
2022/05/18 14:48:46;;;;;;;8.63;2.80;;;;;;;;;;5062167;28;20104;-76
2022/05/18 14:51:12;;;;;;;6.40;2.60;;;;;;;;;;5062259;28;20057;-76
2022/05/18 14:53:45;;;;;;;5.32;2.65;;;;;;;;;;5061032;28;20067;-76
2022/05/18 14:56:12;;;;;;;7.40;3.22;;;;;;;;;;5057001;28;20134;-76
2022/05/18 14:58:49;;;;;;;7.07;2.55;;;;;;;;;;5053369;28;20056;-76
2022/05/18 15:01:33;;;;;;;4.47;2.53;;;;;;;;;;5065281;28;20048;-76
2022/05/18 15:04:07;;;;;;;6.80;2.17;;;;;;;;;;5064857;28;20080;-76
2022/05/18 15:06:35;;;;;;;5.53;2.25;;;;;;;;;;5061529;28;20063;-76